Time;durP1;ratioP1;P1;durP2;ratioP2;P2;SDS_P1;SDS_P2;PMS_P1;PMS_P2;Temp;Humidity;BMP_temperature;BMP_pressure;BME280_temperature;BME280_humidity;BME280_pressure;Samples;Min_cycle;Max_cycle;Signal;HPM_P1;HPM_P2
2023/10/16 00:01:28;;;;;;;0.77;0.67;;;4.80;99.90;4.60;100988.00;;;;5006256;27;93116;-67
2023/10/16 00:03:56;;;;;;;0.50;0.33;;;4.90;99.90;4.60;100984.00;;;;5006342;27;94242;-66
2023/10/16 00:06:22;;;;;;;1.00;0.60;;;4.70;99.90;4.50;100979.00;;;;4985939;27;93980;-65
2023/10/16 00:08:48;;;;;;;1.80;0.50;;;4.80;99.90;4.50;100985.00;;;;4991556;27;109634;-67
2023/10/16 00:11:32;;;;;;;0.40;0.40;;;4.70;99.90;4.50;100982.00;;;;4987417;27;92720;-68
2023/10/16 00:13:58;;;;;;;1.13;0.47;;;4.70;99.90;4.50;100973.00;;;;4984694;27;120658;-67
2023/10/16 00:16:24;;;;;;;0.73;0.60;;;4.70;99.90;4.50;100969.00;;;;5009768;27;122865;-67
2023/10/16 00:18:53;;;;;;;1.20;0.87;;;4.70;99.90;4.50;100966.00;;;;5006821;27;92910;-67
2023/10/16 00:21:18;;;;;;;0.77;0.70;;;5.10;99.90;4.50;100975.00;;;;5009153;27;96845;-68
2023/10/16 00:23:45;;;;;;;1.37;0.70;;;4.70;99.90;4.50;100985.00;;;;5009191;27;93693;-66
2023/10/16 00:26:15;;;;;;;1.30;1.13;;;4.70;99.90;4.50;100976.00;;;;4990774;27;95042;-67
2023/10/16 00:28:45;;;;;;;0.50;0.50;;;4.70;99.90;4.50;100971.00;;;;5004776;27;93126;-66
2023/10/16 00:31:20;;;;;;;0.93;0.50;;;4.70;99.90;4.50;100968.00;;;;5007086;27;93818;-68
2023/10/16 00:33:51;;;;;;;0.97;0.70;;;4.70;99.90;4.50;100968.00;;;;5003737;27;92656;-68
2023/10/16 00:36:17;;;;;;;0.83;0.60;;;4.70;99.90;4.50;100969.00;;;;5005624;27;93048;-68
2023/10/16 00:38:48;;;;;;;2.73;0.50;;;4.70;99.90;4.50;100970.00;;;;4990561;27;93128;-68
2023/10/16 00:43:44;;;;;;;0.80;0.43;;;4.70;99.90;4.50;100961.00;;;;5007434;27;92816;-66
2023/10/16 00:46:35;;;;;;;0.47;0.47;;;4.60;99.90;4.40;100970.00;;;;4976402;27;112495;-65
2023/10/16 00:49:04;;;;;;;0.67;0.63;;;4.70;99.90;4.40;100963.00;;;;5007290;27;92287;-65
2023/10/16 00:51:38;;;;;;;0.40;0.33;;;4.60;99.90;4.40;100966.00;;;;4992170;27;93358;-66
2023/10/16 00:54:16;;;;;;;3.57;0.40;;;4.60;99.90;4.40;100956.00;;;;4984493;27;92956;-66
2023/10/16 00:56:44;;;;;;;0.87;0.40;;;4.60;99.90;4.40;100966.00;;;;4972323;27;95217;-66
2023/10/16 00:59:17;;;;;;;1.23;0.57;;;4.60;99.90;4.40;100961.00;;;;4985749;27;92783;-66
2023/10/16 01:01:47;;;;;;;0.73;0.57;;;5.20;99.90;4.30;100953.00;;;;5005525;27;92688;-68
2023/10/16 01:04:14;;;;;;;0.70;0.70;;;4.60;99.90;4.40;100964.00;;;;5005052;27;93029;-66
2023/10/16 01:06:41;;;;;;;1.03;0.37;;;4.50;99.90;4.30;100968.00;;;;5004403;27;93056;-65
2023/10/16 01:09:12;;;;;;;0.60;0.50;;;4.90;99.90;4.30;100978.00;;;;5006306;27;92555;-68
2023/10/16 01:11:38;;;;;;;1.17;0.93;;;4.50;99.90;4.30;100965.00;;;;5005829;27;92719;-67
2023/10/16 01:14:07;;;;;;;1.10;0.97;;;4.60;99.90;4.30;100979.00;;;;5006941;27;93145;-68
2023/10/16 01:16:34;;;;;;;5.20;0.73;;;4.50;99.90;4.30;100976.00;;;;4974852;27;125168;-68
2023/10/16 01:19:14;;;;;;;1.37;0.43;;;4.50;99.90;4.30;100972.00;;;;4996486;27;93228;-67
2023/10/16 01:21:39;;;;;;;0.70;0.50;;;4.50;99.90;4.30;100973.00;;;;5007213;27;93619;-67
2023/10/16 01:24:12;;;;;;;0.30;0.30;;;4.40;99.90;4.30;100970.00;;;;4988175;27;94085;-66
2023/10/16 01:26:41;;;;;;;1.10;0.47;;;4.40;99.90;4.20;100977.00;;;;4985245;27;93005;-67
2023/10/16 01:29:09;;;;;;;0.53;0.50;;;4.40;99.90;4.20;100977.00;;;;5003541;27;92810;-66
2023/10/16 01:31:38;;;;;;;0.77;0.63;;;4.40;99.90;4.20;100973.00;;;;5007499;27;93896;-67
2023/10/16 01:34:10;;;;;;;0.77;0.50;;;4.40;99.90;4.20;100974.00;;;;5005932;27;94056;-67
2023/10/16 01:36:37;;;;;;;3.03;0.60;;;4.40;99.90;4.10;100970.00;;;;4987120;27;94105;-67
2023/10/16 01:39:08;;;;;;;0.73;0.67;;;3.50;99.90;4.10;100975.00;;;;5009869;27;92052;-67
2023/10/16 01:41:34;;;;;;;0.60;0.40;;;4.30;99.90;4.10;100975.00;;;;4992575;27;92958;-67
2023/10/16 01:44:09;;;;;;;0.30;0.27;;;4.40;99.90;4.10;100980.00;;;;4988858;27;93878;-67
2023/10/16 01:46:35;;;;;;;1.03;0.50;;;4.90;99.90;4.10;100974.00;;;;5009315;27;93722;-67
2023/10/16 01:49:02;;;;;;;0.20;0.20;;;4.30;99.90;4.10;100974.00;;;;5014167;27;109400;-67
2023/10/16 01:51:30;;;;;;;0.93;0.80;;;4.30;99.90;4.10;100970.00;;;;4990565;27;92931;-68
2023/10/16 01:53:55;;;;;;;0.40;0.40;;;4.30;99.90;4.10;100976.00;;;;5005865;27;93879;-67
2023/10/16 01:56:22;;;;;;;1.60;0.50;;;4.30;99.90;4.10;100964.00;;;;5011774;27;93569;-68
2023/10/16 01:58:52;;;;;;;1.07;0.40;;;4.30;99.90;4.10;100966.00;;;;5010034;27;93349;-68
2023/10/16 02:01:19;;;;;;;0.60;0.60;;;4.30;99.90;4.10;100967.00;;;;5009792;27;92780;-68
2023/10/16 02:03:48;;;;;;;0.50;0.50;;;4.30;99.90;4.10;100972.00;;;;5011648;27;106788;-67
2023/10/16 02:06:18;;;;;;;4.07;0.43;;;4.30;99.90;4.10;100968.00;;;;5004439;27;116390;-67
2023/10/16 02:08:48;;;;;;;0.70;0.70;;;4.30;99.90;4.10;100959.00;;;;4994159;27;92718;-67
2023/10/16 02:11:16;;;;;;;2.53;0.70;;;4.20;99.90;4.10;100968.00;;;;4995394;27;93865;-68
2023/10/16 02:13:43;;;;;;;0.30;0.30;;;4.30;99.90;4.00;100969.00;;;;5010065;27;93682;-66
2023/10/16 02:16:12;;;;;;;1.03;0.70;;;4.40;99.90;4.00;100970.00;;;;5008700;27;94613;-67
2023/10/16 02:18:44;;;;;;;1.33;0.70;;;4.20;99.90;4.00;100967.00;;;;5009462;27;92642;-69
2023/10/16 02:21:13;;;;;;;0.83;0.50;;;4.30;99.90;4.00;100966.00;;;;5009809;27;92882;-67
2023/10/16 02:23:48;;;;;;;1.10;0.63;;;4.20;99.90;4.00;100959.00;;;;5010010;27;94422;-68
2023/10/16 02:26:18;;;;;;;0.60;0.43;;;4.30;99.90;4.00;100960.00;;;;5008516;27;93396;-67
2023/10/16 02:28:53;;;;;;;1.37;0.90;;;4.20;99.90;4.00;100967.00;;;;5007000;27;92466;-67
2023/10/16 02:31:19;;;;;;;1.73;0.50;;;4.20;99.90;4.00;100962.00;;;;5008759;27;93566;-66
2023/10/16 02:33:54;;;;;;;2.10;0.97;;;4.10;99.90;3.90;100958.00;;;;5008302;27;94034;-68
2023/10/16 02:36:23;;;;;;;0.30;0.30;;;4.10;99.90;3.90;100970.00;;;;5007597;27;95141;-66
2023/10/16 02:38:55;;;;;;;1.13;0.70;;;4.10;99.90;3.90;100965.00;;;;5006346;27;94193;-68
2023/10/16 02:41:21;;;;;;;1.50;0.40;;;4.10;99.90;3.90;100964.00;;;;4998948;27;93247;-66
2023/10/16 02:43:49;;;;;;;0.67;0.67;;;4.10;99.90;3.90;100957.00;;;;5008340;27;93886;-66
2023/10/16 02:46:19;;;;;;;0.70;0.70;;;4.10;99.90;3.90;100965.00;;;;5006139;27;103516;-66
2023/10/16 02:48:45;;;;;;;0.70;0.57;;;4.20;99.90;3.90;100977.00;;;;5008936;27;92922;-66
2023/10/16 02:51:11;;;;;;;1.70;0.50;;;4.10;99.90;3.90;100975.00;;;;5009147;27;114302;-66
2023/10/16 02:53:41;;;;;;;0.97;0.70;;;4.00;99.90;3.90;100977.00;;;;5008903;27;92400;-65
2023/10/16 02:56:17;;;;;;;1.20;0.87;;;4.10;99.90;3.80;100972.00;;;;5005813;27;92826;-66
2023/10/16 02:58:43;;;;;;;0.50;0.50;;;4.10;99.90;3.90;100970.00;;;;4996030;27;92901;-65
2023/10/16 03:01:19;;;;;;;0.73;0.50;;;4.00;99.90;3.80;100960.00;;;;5005781;27;94308;-67
2023/10/16 03:03:46;;;;;;;0.57;0.57;;;4.10;99.90;3.80;100964.00;;;;5006709;27;92968;-69
2023/10/16 03:06:12;;;;;;;2.07;0.50;;;4.00;99.90;3.80;100976.00;;;;5007830;27;93172;-67
2023/10/16 03:08:39;;;;;;;1.23;0.90;;;4.10;99.90;3.80;100982.00;;;;4995989;27;92824;-67
2023/10/16 03:11:07;;;;;;;1.27;0.80;;;4.00;99.90;3.80;100975.00;;;;5003099;27;92773;-66
2023/10/16 03:13:35;;;;;;;3.30;1.27;;;4.00;99.90;3.80;100976.00;;;;4975204;27;95862;-68
2023/10/16 03:16:07;;;;;;;1.63;0.60;;;4.00;99.90;3.80;100973.00;;;;5010534;27;93874;-68
2023/10/16 03:18:34;;;;;;;1.40;0.83;;;4.50;99.90;3.80;100979.00;;;;4996837;27;92385;-66
2023/10/16 03:21:26;;;;;;;3.03;0.60;;;4.00;99.90;3.80;100975.00;;;;5006844;27;95545;-66
2023/10/16 03:23:51;;;;;;;0.37;0.37;;;4.00;99.90;3.80;100987.00;;;;4992698;27;93049;-67
2023/10/16 03:26:30;;;;;;;1.10;1.00;;;3.90;99.90;3.80;100986.00;;;;5006280;27;122884;-66
2023/10/16 03:28:58;;;;;;;0.60;0.60;;;3.90;99.90;3.70;100985.00;;;;4991957;27;92538;-66
2023/10/16 03:31:24;;;;;;;0.73;0.60;;;4.00;99.90;3.70;100986.00;;;;5010953;27;100309;-66
2023/10/16 03:33:50;;;;;;;0.53;0.33;;;3.90;99.90;3.70;100977.00;;;;5003780;27;122257;-66
2023/10/16 03:36:17;;;;;;;1.73;1.47;;;3.90;99.90;3.70;100986.00;;;;5007267;27;95713;-68
2023/10/16 03:38:43;;;;;;;0.50;0.50;;;3.90;99.90;3.70;100991.00;;;;4994973;27;92612;-66
2023/10/16 03:41:19;;;;;;;0.60;0.57;;;3.90;99.90;3.70;100987.00;;;;5008335;27;92676;-66
2023/10/16 03:43:46;;;;;;;1.93;0.73;;;3.90;99.90;3.60;100984.00;;;;5006409;27;92379;-66
2023/10/16 03:46:15;;;;;;;1.53;0.50;;;3.80;99.90;3.60;100985.00;;;;5007751;27;93115;-67
2023/10/16 03:48:41;;;;;;;0.73;0.70;;;3.80;99.90;3.60;100981.00;;;;5013800;27;92730;-66
2023/10/16 03:51:08;;;;;;;0.63;0.50;;;3.80;99.90;3.60;100983.00;;;;5009471;27;93808;-67
2023/10/16 03:53:37;;;;;;;1.33;1.03;;;3.80;99.90;3.60;100981.00;;;;5003434;27;94213;-65
2023/10/16 03:56:13;;;;;;;1.80;0.97;;;3.80;99.90;3.50;100975.00;;;;5011102;27;93154;-66
2023/10/16 03:58:43;;;;;;;1.47;0.60;;;3.70;99.90;3.50;100975.00;;;;4990225;27;92848;-66
2023/10/16 04:01:11;;;;;;;1.03;0.80;;;3.80;99.90;3.50;100977.00;;;;5001805;27;92986;-67
2023/10/16 04:03:58;;;;;;;1.60;0.80;;;4.30;99.90;3.50;100971.00;;;;5005511;27;93563;-66
2023/10/16 04:06:26;;;;;;;1.23;0.50;;;4.30;99.90;3.50;100977.00;;;;5007324;27;92964;-66
2023/10/16 04:08:55;;;;;;;0.40;0.40;;;3.70;99.90;3.50;100975.00;;;;5006267;27;92292;-66
2023/10/16 04:11:24;;;;;;;0.57;0.50;;;3.60;99.90;3.50;100966.00;;;;5005527;27;93078;-68
2023/10/16 04:13:52;;;;;;;0.53;0.53;;;3.70;99.90;3.50;100970.00;;;;4990410;27;92851;-66
2023/10/16 04:16:53;;;;;;;1.53;0.63;;;3.70;99.90;3.50;100970.00;;;;4991198;27;93903;-66
2023/10/16 04:21:54;;;;;;;2.20;1.10;;;3.70;99.90;3.50;100964.00;;;;5008748;27;98554;-67
2023/10/16 04:29:33;;;;;;;0.33;0.33;;;3.90;99.90;3.50;100964.00;;;;5003955;27;92699;-66
2023/10/16 04:34:52;;;;;;;3.47;0.70;;;3.70;99.90;3.50;100962.00;;;;5012758;27;92394;-67
2023/10/16 04:37:31;;;;;;;0.80;0.80;;;3.80;99.90;3.50;100971.00;;;;5008454;27;92989;-65
2023/10/16 04:42:49;;;;;;;1.27;1.03;;;3.80;99.90;3.50;100977.00;;;;5004981;27;93576;-67
2023/10/16 04:48:07;;;;;;;2.20;1.00;;;3.70;99.90;3.50;100981.00;;;;4991210;27;92796;-67
2023/10/16 05:10:12;;;;;;;2.03;1.23;;;3.60;99.90;3.40;100981.00;;;;5004373;27;93672;-65
2023/10/16 05:20:52;;;;;;;2.07;1.17;;;3.60;99.90;3.40;100973.00;;;;5005716;27;93987;-68
2023/10/16 06:14:34;;;;;;;0.60;0.60;;;4.50;99.90;3.90;101000.00;;;;5002754;27;92628;-65
2023/10/16 06:17:12;;;;;;;4.90;1.40;;;4.00;99.90;4.10;101001.00;;;;5001743;27;92698;-66
2023/10/16 06:19:42;;;;;;;1.00;0.90;;;4.20;99.90;4.20;100998.00;;;;4990982;27;93293;-66
2023/10/16 06:22:09;;;;;;;2.17;0.97;;;4.40;99.90;4.30;100996.00;;;;4989559;27;92098;-68
2023/10/16 06:24:47;;;;;;;2.33;1.53;;;4.50;99.90;4.50;101001.00;;;;4986480;27;92559;-67
2023/10/16 06:27:19;;;;;;;2.83;1.30;;;4.60;99.90;4.60;100997.00;;;;4988586;27;92524;-67
2023/10/16 06:29:53;;;;;;;1.90;1.33;;;4.80;99.90;4.80;100994.00;;;;5012167;27;94040;-66
2023/10/16 06:32:26;;;;;;;1.33;1.23;;;5.50;99.90;4.90;100999.00;;;;5009448;27;93681;-67
2023/10/16 06:34:57;;;;;;;0.70;0.70;;;5.10;99.90;5.10;101006.00;;;;5007159;27;92961;-67
2023/10/16 06:37:24;;;;;;;1.43;1.20;;;5.20;99.90;5.30;101011.00;;;;4996117;27;92867;-68
2023/10/16 06:39:54;;;;;;;0.97;0.73;;;5.40;99.90;5.40;101010.00;;;;5010571;27;92735;-66
2023/10/16 06:42:21;;;;;;;1.90;1.13;;;5.60;99.90;5.60;101016.00;;;;4977438;27;95721;-68
2023/10/16 06:44:53;;;;;;;1.03;0.80;;;5.70;99.90;5.70;101020.00;;;;5004828;27;94740;-68
2023/10/16 06:47:34;;;;;;;1.43;1.17;;;5.90;99.90;5.90;101020.00;;;;5004085;27;92165;-67
2023/10/16 06:50:32;;;;;;;1.97;1.17;;;6.00;99.90;6.00;101008.00;;;;4993415;27;92793;-67
2023/10/16 06:53:01;;;;;;;1.03;0.90;;;6.20;99.90;6.20;101014.00;;;;5014055;27;93066;-69
2023/10/16 06:55:27;;;;;;;2.10;1.00;;;6.40;99.90;6.40;101021.00;;;;4988290;27;93563;-67
2023/10/16 06:57:53;;;;;;;2.20;1.17;;;6.50;99.90;6.50;101017.00;;;;4992720;27;102759;-67
2023/10/16 07:00:38;;;;;;;1.20;1.10;;;6.60;99.90;6.70;101020.00;;;;5009667;27;92601;-68
2023/10/16 07:03:12;;;;;;;0.90;0.90;;;6.70;99.90;6.90;101032.00;;;;4976044;27;92717;-67
2023/10/16 07:05:44;;;;;;;0.60;0.60;;;6.90;99.90;7.00;101026.00;;;;5009659;27;92788;-68
2023/10/16 07:08:20;;;;;;;0.87;0.67;;;7.20;99.90;7.20;101025.00;;;;5010206;27;92723;-68
2023/10/16 07:10:55;;;;;;;0.73;0.70;;;7.90;99.90;7.50;101013.00;;;;5008152;27;92671;-68
2023/10/16 07:13:27;;;;;;;1.63;1.50;;;7.50;99.90;7.70;101028.00;;;;5005640;27;92479;-68
2023/10/16 07:15:59;;;;;;;1.00;0.80;;;7.70;99.90;7.80;101020.00;;;;4994978;27;92566;-67
2023/10/16 07:18:26;;;;;;;1.07;0.97;;;7.90;99.90;8.00;101023.00;;;;5013105;27;92758;-68
2023/10/16 07:21:38;;;;;;;1.03;0.80;;;8.10;99.90;8.10;101020.00;;;;5010210;27;94383;-67
2023/10/16 07:23:39;;;;;;;0.80;0.80;;;8.20;99.90;8.30;101019.00;;;;4999599;27;93749;-66
2023/10/16 07:26:09;;;;;;;0.70;0.60;;;8.50;99.90;8.30;101022.00;;;;4986838;27;94120;-68
2023/10/16 07:28:35;;;;;;;1.67;1.00;;;9.00;99.90;8.30;101027.00;;;;5003558;27;96894;-68
2023/10/16 07:31:02;;;;;;;2.07;0.97;;;8.50;99.90;8.30;101028.00;;;;5011881;27;93078;-66
2023/10/16 07:33:29;;;;;;;3.13;1.43;;;8.50;99.90;8.40;101014.00;;;;5007685;27;92844;-68
2023/10/16 07:35:56;;;;;;;2.60;0.70;;;8.50;99.90;8.50;101026.00;;;;5009455;27;94786;-68
2023/10/16 07:38:24;;;;;;;1.07;0.97;;;8.60;99.90;8.70;101016.00;;;;4990710;27;91916;-67
2023/10/16 07:40:55;;;;;;;1.63;0.60;;;8.80;99.90;8.70;101018.00;;;;5005489;27;93002;-67
2023/10/16 07:43:29;;;;;;;5.87;1.00;;;8.80;99.90;8.90;101030.00;;;;5005465;27;94167;-68
2023/10/16 07:49:09;;;;;;;3.03;0.77;;;9.10;99.90;9.20;101024.00;;;;4965073;27;93695;-67
2023/10/16 07:51:35;;;;;;;1.13;0.67;;;9.30;99.90;9.40;101023.00;;;;5007342;27;93077;-67
2023/10/16 07:54:00;;;;;;;0.77;0.77;;;9.50;99.90;9.60;101034.00;;;;5009235;27;98128;-67
2023/10/16 07:56:32;;;;;;;0.70;0.70;;;9.60;99.90;9.80;101022.00;;;;5008046;27;121506;-67
2023/10/16 07:59:21;;;;;;;0.50;0.50;;;9.90;99.90;10.00;101025.00;;;;4988932;27;92915;-67
2023/10/16 08:01:54;;;;;;;1.23;0.70;;;10.00;99.90;10.30;101035.00;;;;4994642;27;92534;-67
2023/10/16 08:06:53;;;;;;;1.97;0.90;;;10.90;99.90;10.60;101040.00;;;;5007626;27;92977;-66
2023/10/16 08:11:58;;;;;;;0.40;0.40;;;10.80;99.90;10.80;101036.00;;;;4987497;27;93747;-67
2023/10/16 08:14:30;;;;;;;4.00;0.80;;;10.90;99.90;10.90;101038.00;;;;5005450;27;92593;-66
2023/10/16 08:17:04;;;;;;;1.30;0.97;;;11.00;99.90;10.90;101050.00;;;;5006776;27;93425;-67
2023/10/16 08:19:36;;;;;;;0.50;0.50;;;11.30;99.70;10.90;101049.00;;;;5007939;27;92525;-65
2023/10/16 08:22:07;;;;;;;4.00;0.90;;;11.10;98.70;10.60;101042.00;;;;5007113;27;93138;-65
2023/10/16 08:24:34;;;;;;;0.47;0.47;;;10.90;98.70;10.50;101042.00;;;;5003491;27;93256;-68
2023/10/16 08:29:59;;;;;;;1.03;0.53;;;10.60;98.40;10.20;101041.00;;;;5007083;27;92089;-67
2023/10/16 08:32:43;;;;;;;0.90;0.90;;;10.40;98.70;10.20;101043.00;;;;5004983;27;92648;-66
2023/10/16 08:35:09;;;;;;;0.80;0.80;;;10.40;98.70;10.20;101041.00;;;;5006145;27;93573;-65
2023/10/16 08:37:40;;;;;;;1.17;0.50;;;10.40;99.20;10.30;101057.00;;;;5005774;27;93781;-65
2023/10/16 08:40:19;;;;;;;1.03;0.83;;;10.40;98.90;10.20;101049.00;;;;5008973;27;92968;-67
2023/10/16 08:43:09;;;;;;;1.83;0.97;;;10.30;98.90;10.20;101046.00;;;;4990884;27;92843;-66
2023/10/16 08:45:44;;;;;;;1.03;0.50;;;10.30;98.80;10.10;101047.00;;;;4988764;27;92717;-66
2023/10/16 08:48:10;;;;;;;1.20;0.83;;;10.20;98.70;10.00;101043.00;;;;5006694;27;94074;-65
2023/10/16 08:50:43;;;;;;;0.70;0.70;;;10.20;98.90;10.10;101057.00;;;;5004005;27;92719;-66
2023/10/16 08:53:31;;;;;;;0.97;0.90;;;10.20;99.30;10.20;101046.00;;;;4989577;27;94017;-67
2023/10/16 08:56:09;;;;;;;2.13;1.07;;;10.30;99.30;10.30;101046.00;;;;5006806;27;92574;-67
2023/10/16 08:58:49;;;;;;;0.73;0.43;;;10.40;99.30;10.30;101050.00;;;;5003573;27;93219;-68
2023/10/16 09:01:16;;;;;;;0.80;0.60;;;10.40;99.30;10.50;101048.00;;;;4995665;27;92721;-66
2023/10/16 09:03:50;;;;;;;1.07;0.90;;;10.50;99.30;10.80;101051.00;;;;5008739;27;93952;-67
2023/10/16 09:06:23;;;;;;;0.73;0.70;;;10.80;99.40;11.20;101046.00;;;;5004418;27;92787;-67
2023/10/16 09:08:54;;;;;;;0.97;0.60;;;11.10;99.20;11.40;101043.00;;;;4986644;27;92708;-67
2023/10/16 09:11:24;;;;;;;1.17;0.70;;;11.80;99.00;11.50;101051.00;;;;4996867;27;93106;-67
2023/10/16 09:13:51;;;;;;;1.03;1.03;;;11.50;98.20;11.50;101048.00;;;;5005495;27;92965;-66
2023/10/16 09:16:23;;;;;;;2.43;0.90;;;11.60;97.60;11.40;101047.00;;;;5006578;27;93911;-66
2023/10/16 09:18:50;;;;;;;3.20;0.50;;;11.50;97.60;11.30;101069.00;;;;4995555;27;92990;-66
2023/10/16 09:21:27;;;;;;;5.30;0.77;;;11.50;97.50;11.30;101061.00;;;;5008871;27;92295;-67
2023/10/16 09:24:00;;;;;;;2.20;1.00;;;11.30;97.60;11.20;101061.00;;;;4987977;27;92934;-66
2023/10/16 09:26:32;;;;;;;0.57;0.57;;;11.30;97.80;11.20;101074.00;;;;5005200;27;92957;-66
2023/10/16 09:29:15;;;;;;;1.43;1.10;;;11.90;98.20;11.20;101064.00;;;;5006037;27;93822;-66
2023/10/16 09:31:44;;;;;;;2.27;0.87;;;11.30;97.60;11.00;101057.00;;;;5003772;27;92949;-66
2023/10/16 09:34:17;;;;;;;3.63;1.00;;;11.20;97.40;10.80;101067.00;;;;5005210;27;92871;-66
2023/10/16 09:37:14;;;;;;;1.57;0.70;;;11.00;97.50;10.80;101060.00;;;;5005677;27;94290;-65
2023/10/16 09:39:46;;;;;;;0.90;0.90;;;10.80;97.80;10.80;101055.00;;;;5003445;27;92801;-67
2023/10/16 09:42:12;;;;;;;0.43;0.43;;;10.80;98.10;11.00;101048.00;;;;4973496;27;93231;-67
2023/10/16 09:44:40;;;;;;;1.73;1.33;;;11.00;98.40;11.20;101054.00;;;;5005958;27;107805;-65
2023/10/16 09:47:25;;;;;;;2.40;0.87;;;11.10;98.30;11.30;101064.00;;;;5005347;27;92834;-66
2023/10/16 09:49:58;;;;;;;1.53;0.87;;;11.20;98.00;11.20;101058.00;;;;5001245;27;92822;-65
2023/10/16 09:52:24;;;;;;;0.93;0.63;;;11.20;97.80;11.20;101058.00;;;;5006430;27;92813;-67
2023/10/16 09:54:54;;;;;;;1.23;0.63;;;11.20;97.80;11.30;101059.00;;;;4977362;27;99249;-66
2023/10/16 09:57:27;;;;;;;0.63;0.40;;;11.20;97.80;11.20;101065.00;;;;4988097;27;93482;-66
2023/10/16 10:00:03;;;;;;;2.13;1.10;;;11.20;97.40;11.20;101062.00;;;;5008381;27;93537;-66
2023/10/16 10:02:35;;;;;;;0.80;0.80;;;11.20;97.60;11.50;101067.00;;;;4991995;27;92732;-65
2023/10/16 10:05:09;;;;;;;0.50;0.50;;;11.40;97.90;11.90;101059.00;;;;4980587;27;93014;-65
2023/10/16 10:07:47;;;;;;;0.97;0.90;;;11.90;97.80;12.30;101063.00;;;;4990111;27;94230;-67
2023/10/16 10:13:10;;;;;;;1.80;0.80;;;12.50;96.90;12.80;101063.00;;;;5010030;27;92043;-67
2023/10/16 10:15:44;;;;;;;0.40;0.40;;;12.70;96.40;12.80;101069.00;;;;4992175;27;92999;-65
2023/10/16 10:20:58;;;;;;;1.07;0.77;;;12.90;96.40;12.90;101074.00;;;;5013110;27;93896;-66
2023/10/16 10:23:26;;;;;;;0.60;0.60;;;12.90;96.10;13.10;101071.00;;;;5010529;27;92938;-66
2023/10/16 10:25:54;;;;;;;1.33;1.10;;;13.00;95.80;13.10;101074.00;;;;5008784;27;92791;-67
2023/10/16 10:28:28;;;;;;;5.43;0.83;;;13.10;95.40;13.40;101061.00;;;;5007636;27;94244;-66
2023/10/16 10:30:56;;;;;;;0.80;0.60;;;13.30;95.20;13.70;101061.00;;;;4984834;27;107926;-67
2023/10/16 10:33:51;;;;;;;0.40;0.40;;;13.50;94.90;13.90;101061.00;;;;4992243;27;92625;-66
2023/10/16 10:36:39;;;;;;;0.70;0.70;;;13.70;94.90;14.30;101060.00;;;;5009351;27;93113;-67
2023/10/16 10:39:20;;;;;;;0.47;0.47;;;14.10;94.70;14.40;101057.00;;;;4995438;27;92500;-66
2023/10/16 10:41:51;;;;;;;1.37;1.10;;;14.30;94.10;14.30;101054.00;;;;5003721;27;92873;-66
2023/10/16 10:44:21;;;;;;;1.23;0.67;;;14.30;93.40;14.20;101061.00;;;;5010277;27;92717;-66
2023/10/16 10:46:49;;;;;;;0.87;0.57;;;14.20;92.60;14.00;101064.00;;;;4987635;27;93792;-66
2023/10/16 10:49:33;;;;;;;1.13;0.77;;;14.00;92.60;13.90;101061.00;;;;4998101;27;93955;-66
2023/10/16 10:52:12;;;;;;;2.83;0.90;;;13.90;93.00;13.90;101059.00;;;;4975323;27;94537;-67
2023/10/16 10:54:48;;;;;;;4.83;1.10;;;13.90;92.50;13.70;101062.00;;;;5008043;27;92541;-65
2023/10/16 10:57:24;;;;;;;0.43;0.40;;;13.70;92.30;13.60;101057.00;;;;5011471;27;94157;-66
2023/10/16 10:59:56;;;;;;;0.80;0.63;;;13.70;92.60;13.50;101043.00;;;;4997178;27;93210;-67
2023/10/16 11:04:58;;;;;;;2.10;0.60;;;13.50;92.50;13.50;101048.00;;;;5010714;27;92107;-66
2023/10/16 11:07:39;;;;;;;3.07;0.83;;;13.50;92.70;13.60;101048.00;;;;5005297;27;92441;-65
2023/10/16 11:10:06;;;;;;;1.90;0.97;;;13.50;92.70;13.80;101046.00;;;;5009426;27;93266;-65
2023/10/16 11:12:33;;;;;;;0.90;0.90;;;13.70;92.60;13.70;101030.00;;;;5007694;27;95886;-66
2023/10/16 11:15:01;;;;;;;0.97;0.77;;;13.70;91.80;13.70;101034.00;;;;5005221;27;110630;-67
2023/10/16 11:17:35;;;;;;;1.00;0.40;;;13.60;92.00;14.00;101036.00;;;;4995181;27;92840;-66
2023/10/16 11:20:27;;;;;;;0.70;0.50;;;13.80;92.50;14.10;101034.00;;;;5007649;27;93728;-66
2023/10/16 11:22:56;;;;;;;0.67;0.60;;;13.90;91.90;14.10;101038.00;;;;4995200;27;92891;-65
2023/10/16 11:25:28;;;;;;;2.83;1.05;;;14.10;91.30;14.00;101037.00;;;;5006428;27;92500;-66
2023/10/16 11:27:57;;;;;;;0.73;0.73;;;13.90;90.90;13.80;101034.00;;;;4996485;27;92969;-66
2023/10/16 11:30:26;;;;;;;1.90;0.47;;;13.90;91.10;13.80;101030.00;;;;5006967;27;92237;-66
2023/10/16 11:32:54;;;;;;;0.57;0.40;;;13.80;91.40;13.80;101038.00;;;;5006759;27;92647;-65
2023/10/16 11:35:20;;;;;;;2.30;0.90;;;13.80;91.40;13.80;101035.00;;;;5009609;27;92600;-65
2023/10/16 11:37:52;;;;;;;1.03;0.50;;;13.70;91.20;13.70;101037.00;;;;4995045;27;93705;-65
2023/10/16 11:40:18;;;;;;;1.70;0.57;;;13.70;91.40;13.80;101043.00;;;;4989857;27;93250;-65
2023/10/16 11:42:45;;;;;;;0.63;0.63;;;13.70;91.40;13.80;101044.00;;;;5007655;27;92744;-65
2023/10/16 11:45:18;;;;;;;1.00;0.63;;;14.50;91.50;13.70;101039.00;;;;5010206;27;93264;-66
2023/10/16 11:47:44;;;;;;;1.70;0.23;;;13.70;91.00;13.60;101034.00;;;;5009217;27;92630;-65
2023/10/16 11:50:17;;;;;;;0.87;0.63;;;13.50;91.20;13.40;101035.00;;;;4996894;27;98512;-66
2023/10/16 11:52:43;;;;;;;0.80;0.60;;;13.40;91.40;13.40;101021.00;;;;5009179;27;94393;-65
2023/10/16 11:55:09;;;;;;;1.33;0.60;;;13.40;91.60;13.50;101025.00;;;;5009375;27;92331;-65
2023/10/16 11:57:35;;;;;;;1.00;0.33;;;13.40;91.90;13.60;101019.00;;;;5010588;27;93373;-66
2023/10/16 12:00:15;;;;;;;2.08;0.52;;;13.50;91.90;13.80;101021.00;;;;5005695;27;122328;-67
2023/10/16 12:02:45;;;;;;;0.60;0.20;;;13.70;91.90;13.90;101016.00;;;;5007407;27;93992;-66
2023/10/16 12:05:12;;;;;;;0.83;0.57;;;13.80;91.80;14.10;101020.00;;;;4995125;27;92569;-66
2023/10/16 12:07:43;;;;;;;0.30;0.30;;;13.90;91.70;14.20;101011.00;;;;5009668;27;92532;-66
2023/10/16 12:10:15;;;;;;;3.58;0.80;;;14.10;91.50;14.30;101017.00;;;;5009638;27;93317;-67
2023/10/16 12:12:41;;;;;;;3.03;0.90;;;14.20;91.10;14.40;101024.00;;;;5010563;27;92843;-65
2023/10/16 12:15:10;;;;;;;0.50;0.50;;;14.30;91.20;14.70;101024.00;;;;5010255;27;99910;-66
2023/10/16 12:17:36;;;;;;;0.67;0.63;;;14.50;91.10;14.70;101020.00;;;;4991727;27;94640;-65
2023/10/16 12:20:10;;;;;;;1.83;0.90;;;14.60;90.70;14.60;101022.00;;;;5007746;27;93368;-65
2023/10/16 12:22:39;;;;;;;0.40;0.40;;;14.60;90.70;14.50;101017.00;;;;4996161;27;93282;-65
2023/10/16 12:25:09;;;;;;;0.22;0.22;;;14.40;90.60;14.40;101003.00;;;;5010475;27;92798;-65
2023/10/16 12:27:38;;;;;;;0.43;0.43;;;14.40;90.50;14.30;101010.00;;;;5013714;27;96479;-65
2023/10/16 12:30:05;;;;;;;0.77;0.28;;;14.20;90.20;14.00;101002.00;;;;5004432;27;93883;-66
2023/10/16 12:32:32;;;;;;;0.95;0.82;;;14.10;90.00;13.80;100996.00;;;;5008038;27;107251;-66
2023/10/16 12:35:00;;;;;;;0.13;0.13;;;13.90;90.40;13.60;101000.00;;;;5008177;27;92525;-65
2023/10/16 12:37:27;;;;;;;0.40;0.40;;;13.70;90.00;13.40;100997.00;;;;5007496;27;92756;-67
2023/10/16 12:39:55;;;;;;;0.20;0.20;;;14.00;90.70;13.30;101002.00;;;;5010260;27;93569;-67
2023/10/16 12:42:21;;;;;;;0.20;0.20;;;13.30;90.50;13.20;100996.00;;;;5008774;27;93212;-65
2023/10/16 12:44:47;;;;;;;0.30;0.30;;;13.20;90.90;13.10;100982.00;;;;5004764;27;92166;-66
2023/10/16 12:47:13;;;;;;;0.63;0.20;;;13.10;90.90;13.00;100987.00;;;;5008074;27;92688;-66
2023/10/16 12:49:39;;;;;;;0.30;0.30;;;13.00;90.90;12.90;100994.00;;;;4995664;27;92820;-66
2023/10/16 12:52:05;;;;;;;0.87;0.40;;;12.90;91.10;12.90;101000.00;;;;5007174;27;123241;-66
2023/10/16 12:54:31;;;;;;;3.93;0.30;;;12.80;91.20;12.90;100990.00;;;;4996004;27;93117;-65
2023/10/16 12:56:57;;;;;;;0.10;0.10;;;12.90;91.10;13.00;100988.00;;;;5007070;27;103006;-67
2023/10/16 12:59:26;;;;;;;0.20;0.20;;;12.90;91.00;13.20;100985.00;;;;5008158;27;93042;-66
2023/10/16 13:01:52;;;;;;;0.60;0.30;;;13.10;91.10;13.50;100998.00;;;;5008906;27;93328;-66
2023/10/16 13:04:19;;;;;;;0.20;0.20;;;13.30;91.10;13.70;100992.00;;;;5006616;27;92933;-66
2023/10/16 13:06:45;;;;;;;0.60;0.60;;;13.60;90.90;13.70;100991.00;;;;5007015;27;92871;-66
2023/10/16 13:09:15;;;;;;;0.30;0.30;;;13.60;90.00;13.60;100997.00;;;;5010291;27;92335;-66